createdAt,value
2023-05-20T00:00:27.342Z,102105.41
2023-05-20T00:05:29.425Z,102111.50
2023-05-20T00:10:31.392Z,102115.88
2023-05-20T00:15:35.486Z,102105.19
2023-05-20T00:20:38.016Z,102107.81
2023-05-20T00:25:40.268Z,102108.63
2023-05-20T00:30:44.210Z,102101.56
2023-05-20T00:35:46.204Z,102099.81
2023-05-20T00:40:48.230Z,102099.81
2023-05-20T00:45:52.350Z,102095.25
2023-05-20T00:50:54.625Z,102096.97
2023-05-20T00:55:57.038Z,102102.13
2023-05-20T01:01:00.583Z,102095.97
2023-05-20T01:06:02.715Z,102092.31
2023-05-20T01:11:09.042Z,102089.53
2023-05-20T01:16:15.353Z,102079.81
2023-05-20T01:21:17.632Z,102081.63
2023-05-20T01:26:20.829Z,102086.94
2023-05-20T01:31:26.085Z,102081.56
2023-05-20T01:36:29.272Z,102072.63
2023-05-20T01:41:33.710Z,102071.81
2023-05-20T01:46:35.979Z,102058.47
2023-05-20T01:51:38.223Z,102068.09
2023-05-20T01:56:41.769Z,102068.91
2023-05-20T02:01:43.923Z,102065.50
2023-05-20T02:06:45.706Z,102055.78
2023-05-20T02:11:49.180Z,102055.88
2023-05-20T02:16:51.396Z,102055.03
2023-05-20T02:21:53.799Z,102064.91
2023-05-20T02:26:56.929Z,102060.59
2023-05-20T02:31:58.748Z,102063.38
2023-05-20T02:37:00.943Z,102069.66
2023-05-20T02:42:04.280Z,102072.44
2023-05-20T02:47:06.432Z,102076.97
2023-05-20T02:52:08.663Z,102078.69
2023-05-20T02:57:12.147Z,102073.38
2023-05-20T03:02:14.147Z,102074.28
2023-05-20T03:07:16.250Z,102086.72
2023-05-20T03:12:19.577Z,102084.13
2023-05-20T03:17:21.770Z,102086.75
2023-05-20T03:22:24.109Z,102079.69
2023-05-20T03:27:27.752Z,102089.41
2023-05-20T03:32:30.026Z,102077.88
2023-05-20T03:37:32.562Z,102083.25
2023-05-20T03:42:36.553Z,102081.47
2023-05-20T03:47:38.788Z,102085.09
2023-05-20T03:52:41.126Z,102089.50
2023-05-20T03:57:44.693Z,102091.38
2023-05-20T04:02:46.624Z,102083.38
2023-05-20T04:07:49.080Z,102090.53
2023-05-20T04:12:53.189Z,102082.56
2023-05-20T04:17:55.126Z,102077.31
2023-05-20T04:22:57.669Z,102084.38
2023-05-20T04:28:01.388Z,102078.16
2023-05-20T04:33:03.600Z,102082.63
2023-05-20T04:38:06.036Z,102088.00
2023-05-20T04:43:09.413Z,102092.44
2023-05-20T04:48:11.720Z,102077.44
2023-05-20T04:53:13.532Z,102084.53
2023-05-20T04:58:17.279Z,102080.16
2023-05-20T05:03:19.900Z,102073.09
2023-05-20T05:08:22.071Z,102074.78
2023-05-20T05:13:26.338Z,102073.91
2023-05-20T05:18:28.115Z,102068.66
2023-05-20T05:23:31.012Z,102074.91
2023-05-20T05:28:34.171Z,102075.84
2023-05-20T05:33:35.971Z,102066.94
2023-05-20T05:38:37.696Z,102058.97
2023-05-20T05:43:40.762Z,102053.66
2023-05-20T05:48:42.723Z,102056.34
2023-05-20T05:53:44.986Z,102054.56
2023-05-20T05:58:48.098Z,102057.25
2023-05-20T06:03:49.969Z,102049.28
2023-05-20T06:08:52.049Z,102043.06
2023-05-20T06:13:55.564Z,102046.63
2023-05-20T06:18:57.892Z,102053.72
2023-05-20T06:24:00.632Z,102065.25
2023-05-20T06:29:04.064Z,102059.03
2023-05-20T06:34:05.905Z,102069.69
2023-05-20T06:39:07.820Z,102074.16
2023-05-20T06:44:10.912Z,102070.59
2023-05-20T06:49:12.696Z,102081.25
2023-05-20T06:54:14.475Z,102076.81
2023-05-20T06:59:18.375Z,102071.44
2023-05-20T07:04:20.548Z,102066.13
2023-05-20T07:09:22.930Z,102066.97
2023-05-20T07:14:26.137Z,102061.66
2023-05-20T07:19:28.373Z,102049.97
2023-05-20T07:24:30.599Z,102041.84
2023-05-20T07:29:34.303Z,102039.16
2023-05-20T07:34:36.412Z,102038.34
2023-05-20T07:39:38.372Z,102037.38
2023-05-20T07:44:42.004Z,102037.88
2023-05-20T07:49:43.721Z,102029.69
2023-05-20T07:54:45.882Z,102031.63
2023-05-20T07:59:49.721Z,102020.75
2023-05-20T08:04:52.012Z,102027.00
2023-05-20T08:09:53.848Z,102023.34
2023-05-20T08:14:57.220Z,102023.06
2023-05-20T08:19:59.154Z,102015.50
2023-05-20T08:25:01.485Z,102004.34
2023-05-20T08:30:06.277Z,102000.59
2023-05-20T08:35:08.588Z,101987.72
2023-05-20T08:40:12.234Z,101980.69
2023-05-20T08:45:19.211Z,101993.25
2023-05-20T08:50:21.780Z,101993.41
2023-05-20T08:55:25.972Z,101997.94
2023-05-20T09:00:30.251Z,101998.13
2023-05-20T09:05:32.464Z,102010.00
2023-05-20T09:10:35.794Z,102003.81
2023-05-20T09:15:39.915Z,102002.38
2023-05-20T09:20:41.892Z,101998.75
2023-05-20T09:25:43.822Z,102004.56
2023-05-20T09:30:49.050Z,101992.56
2023-05-20T09:35:51.200Z,101992.47
2023-05-20T09:40:53.033Z,101995.53
2023-05-20T09:45:56.358Z,101993.63
2023-05-20T09:50:58.614Z,101993.25
2023-05-20T09:56:00.814Z,101984.09
2023-05-20T10:01:04.188Z,101974.28
2023-05-20T10:06:21.935Z,101976.78
2023-05-20T10:11:34.592Z,101967.53
2023-05-20T10:16:54.143Z,101968.22
2023-05-20T10:22:01.357Z,101960.00
2023-05-20T10:27:05.009Z,101967.28
2023-05-20T10:32:08.697Z,101967.03
2023-05-20T10:37:23.345Z,101958.69
2023-05-20T10:42:29.166Z,101959.00
2023-05-20T10:47:32.672Z,101951.22
2023-05-20T10:52:36.765Z,101948.88
2023-05-20T10:57:38.596Z,101949.53
2023-05-20T11:02:41.927Z,101932.75
2023-05-20T11:07:44.225Z,101931.50
2023-05-20T11:12:46.391Z,101905.09
2023-05-20T11:17:57.354Z,101917.72
2023-05-20T11:22:59.423Z,101914.88
2023-05-20T11:28:01.802Z,101913.38
2023-05-20T11:33:05.391Z,101907.81
2023-05-20T11:38:07.234Z,101888.06
2023-05-20T11:43:11.742Z,101898.78
2023-05-20T11:48:15.459Z,101892.75
2023-05-20T11:53:18.640Z,101883.06
2023-05-20T11:58:22.510Z,101876.78
2023-05-20T12:03:26.121Z,101862.78
2023-05-20T12:08:28.182Z,101872.25
2023-05-20T12:13:29.914Z,101853.75
2023-05-20T12:18:33.117Z,101847.94
2023-05-20T12:23:35.527Z,101853.16
2023-05-20T12:28:37.578Z,101835.56
2023-05-20T12:33:40.709Z,101830.25
2023-05-20T12:38:43.069Z,101836.34
2023-05-20T12:43:45.114Z,101815.88
2023-05-20T12:55:25.570Z,101809.75
2023-05-20T13:00:27.562Z,101813.25
2023-05-20T13:05:29.669Z,101808.00
2023-05-20T13:10:34.129Z,101789.59
2023-05-20T13:15:36.060Z,101787.00
2023-05-20T13:20:38.426Z,101787.59
2023-05-20T13:25:41.726Z,101772.34
2023-05-20T13:30:44.277Z,101740.94
2023-05-20T13:35:46.074Z,101744.22
2023-05-20T13:40:49.890Z,101749.47
2023-05-20T13:45:52.311Z,101749.56
2023-05-20T13:50:54.311Z,101754.38
2023-05-20T13:55:58.124Z,101753.72
2023-05-20T14:01:00.361Z,101752.16
2023-05-20T14:06:02.860Z,101735.56
2023-05-20T14:11:06.044Z,101736.47
2023-05-20T14:16:08.373Z,101729.13
2023-05-20T14:21:11.732Z,101727.75
2023-05-20T14:26:14.929Z,101715.59
2023-05-20T14:31:16.782Z,101707.53
2023-05-20T14:36:18.517Z,101704.78
2023-05-20T14:41:22.133Z,101700.84
2023-05-20T14:46:24.001Z,101698.84
2023-05-20T14:51:26.624Z,101711.44
2023-05-20T14:56:29.846Z,101680.03
2023-05-20T15:01:32.002Z,101677.13
2023-05-20T15:06:34.006Z,101676.47
2023-05-20T15:11:37.495Z,101677.78
2023-05-20T15:16:39.270Z,101672.53
2023-05-20T15:21:41.462Z,101680.81
2023-05-20T15:26:44.946Z,101658.53
2023-05-20T15:31:46.669Z,101662.88
2023-05-20T15:36:48.405Z,101665.44
2023-05-20T15:41:52.021Z,101660.84
2023-05-20T15:46:53.795Z,101647.31
2023-05-20T15:52:02.392Z,101648.41
2023-05-20T15:57:06.991Z,101634.28
2023-05-20T16:02:09.014Z,101646.34
2023-05-20T16:07:10.780Z,101629.34
2023-05-20T16:12:13.948Z,101635.84
2023-05-20T16:17:15.797Z,101636.53
2023-05-20T16:22:18.542Z,101619.50
2023-05-20T16:27:22.353Z,101612.69
2023-05-20T16:32:24.529Z,101610.44
2023-05-20T16:37:26.583Z,101607.22
2023-05-20T16:42:29.687Z,101610.28
2023-05-20T16:47:31.784Z,101609.13
2023-05-20T16:52:34.437Z,101605.50
2023-05-20T16:57:38.025Z,101608.63
2023-05-20T17:02:40.431Z,101617.78
2023-05-20T17:07:42.256Z,101594.00
2023-05-20T17:12:45.422Z,101595.41
2023-05-20T17:17:47.154Z,101587.63
2023-05-20T17:22:49.311Z,101603.72
2023-05-20T17:27:52.398Z,101602.59
2023-05-20T17:32:54.454Z,101601.50
2023-05-20T17:37:56.708Z,101593.06
2023-05-20T17:43:00.230Z,101599.16
2023-05-20T17:48:02.060Z,101598.63
2023-05-20T17:53:04.187Z,101591.75
2023-05-20T17:58:07.723Z,101602.41
2023-05-20T18:03:10.514Z,101598.09
2023-05-20T18:08:12.804Z,101594.09
2023-05-20T18:13:16.366Z,101582.84
2023-05-20T18:18:18.641Z,101583.81
2023-05-20T18:23:20.753Z,101590.47
2023-05-20T18:28:24.385Z,101583.56
2023-05-20T18:33:26.495Z,101587.16
2023-05-20T18:38:28.643Z,101577.75
2023-05-20T18:43:32.179Z,101586.28
2023-05-20T18:48:33.994Z,101592.97
2023-05-20T18:53:36.505Z,101594.28
2023-05-20T18:58:40.091Z,101599.72
2023-05-20T19:03:42.411Z,101595.53
2023-05-20T19:08:44.373Z,101600.16
2023-05-20T19:13:47.694Z,101597.69
2023-05-20T19:18:49.717Z,101608.72
2023-05-20T19:23:51.617Z,101599.03
2023-05-20T19:28:55.105Z,101608.91
2023-05-20T19:33:57.545Z,101613.56
2023-05-20T19:38:59.283Z,101615.72
2023-05-20T19:44:02.828Z,101620.69
2023-05-20T19:49:05.050Z,101627.63
2023-05-20T19:54:07.294Z,101626.13
2023-05-20T19:59:10.663Z,101620.13
2023-05-20T20:04:12.691Z,101626.41
2023-05-20T20:09:15.081Z,101621.25
2023-05-20T20:14:18.234Z,101623.19
2023-05-20T20:19:20.030Z,101616.44
2023-05-20T20:24:22.145Z,101619.25
2023-05-20T20:29:25.833Z,101620.84
2023-05-20T20:34:28.232Z,101624.88
2023-05-20T20:39:29.953Z,101618.91
2023-05-20T20:44:33.518Z,101623.16
2023-05-20T20:49:35.471Z,101612.94
2023-05-20T20:54:38.732Z,101608.81
2023-05-20T20:59:43.252Z,101599.41
2023-05-20T21:04:45.197Z,101597.00
2023-05-20T21:09:47.265Z,101601.47
2023-05-20T21:14:50.394Z,101590.03
2023-05-20T21:19:52.488Z,101586.63
2023-05-20T21:24:54.550Z,101576.81
2023-05-20T21:29:58.243Z,101566.97
2023-05-20T21:35:00.360Z,101564.16
2023-05-20T21:40:02.511Z,101561.41
2023-05-20T21:45:07.578Z,101557.06
2023-05-20T21:50:10.715Z,101552.69
2023-05-20T21:55:12.842Z,101546.63
2023-05-20T22:00:17.009Z,101545.56
2023-05-20T22:05:19.450Z,101544.78
2023-05-20T22:10:23.351Z,101550.03
2023-05-20T22:15:27.215Z,101549.41
2023-05-20T22:20:29.727Z,101546.09
2023-05-20T22:25:31.728Z,101546.91
2023-05-20T22:30:35.633Z,101545.03
2023-05-20T22:35:38.265Z,101537.88
2023-05-20T22:40:40.192Z,101540.81
2023-05-20T22:45:43.534Z,101536.72
2023-05-20T22:50:45.741Z,101531.47
2023-05-20T22:55:47.516Z,101530.09
2023-05-20T23:00:51.239Z,101533.63
2023-05-20T23:05:53.749Z,101536.41
2023-05-20T23:10:56.334Z,101530.28
2023-05-20T23:15:59.709Z,101527.91
2023-05-20T23:21:01.864Z,101523.44
2023-05-20T23:26:04.482Z,101510.34
2023-05-20T23:31:08.185Z,101503.03
2023-05-20T23:36:10.269Z,101504.06
2023-05-20T23:41:12.389Z,101492.56
2023-05-20T23:46:15.904Z,101499.16
2023-05-20T23:51:17.736Z,101499.31
2023-05-20T23:56:19.909Z,101492.25
